createdAt,value
2023-03-17T00:04:28.650Z,2.00
2023-03-17T00:09:32.026Z,2.70
2023-03-17T00:14:37.330Z,2.20
2023-03-17T00:19:41.401Z,2.03
2023-03-17T00:24:44.835Z,1.90
2023-03-17T00:29:49.528Z,2.27
2023-03-17T00:34:53.589Z,2.10
2023-03-17T00:39:57.248Z,2.10
2023-03-17T00:45:02.659Z,2.40
2023-03-17T00:50:07.698Z,2.07
2023-03-17T00:55:11.742Z,2.23
2023-03-17T01:00:26.510Z,2.13
2023-03-17T01:05:29.896Z,2.13
2023-03-17T01:10:33.240Z,2.00
2023-03-17T01:15:46.803Z,2.20
2023-03-17T01:20:50.463Z,2.33
2023-03-17T01:25:54.510Z,2.00
2023-03-17T01:30:59.273Z,2.07
2023-03-17T01:36:02.668Z,1.90
2023-03-17T01:41:06.301Z,2.17
2023-03-17T01:46:30.136Z,1.73
2023-03-17T01:51:37.912Z,2.07
2023-03-17T01:56:44.051Z,2.10
2023-03-17T02:01:52.633Z,2.27
2023-03-17T02:06:58.909Z,1.90
2023-03-17T02:12:04.034Z,2.03
2023-03-17T02:17:08.938Z,2.27
2023-03-17T02:22:13.883Z,2.00
2023-03-17T02:27:20.191Z,2.30
2023-03-17T02:32:23.584Z,2.50
2023-03-17T02:37:28.426Z,2.30
2023-03-17T02:42:31.745Z,2.40
2023-03-17T02:47:35.099Z,2.27
2023-03-17T02:52:39.850Z,2.27
2023-03-17T02:57:43.170Z,2.10
2023-03-17T03:02:46.498Z,2.20
2023-03-17T03:07:51.569Z,2.40
2023-03-17T03:12:54.826Z,2.37
2023-03-17T03:17:58.141Z,2.63
2023-03-17T03:23:02.793Z,2.80
2023-03-17T03:28:06.669Z,2.13
2023-03-17T03:33:10.568Z,2.27
2023-03-17T03:38:15.685Z,2.40
2023-03-17T03:43:23.385Z,2.60
2023-03-17T03:48:27.126Z,2.40
2023-03-17T03:53:31.988Z,2.30
2023-03-17T03:58:35.785Z,2.23
2023-03-17T04:03:39.828Z,2.40
2023-03-17T04:08:44.520Z,2.23
2023-03-17T04:13:47.861Z,1.90
2023-03-17T04:18:51.328Z,2.10
2023-03-17T04:23:56.268Z,2.70
2023-03-17T04:28:59.839Z,2.50
2023-03-17T04:34:03.177Z,2.27
2023-03-17T04:39:08.385Z,2.27
2023-03-17T04:44:11.829Z,2.20
2023-03-17T04:49:15.158Z,2.07
2023-03-17T04:54:20.068Z,2.00
2023-03-17T04:59:23.327Z,1.90
2023-03-17T05:04:31.516Z,2.30
2023-03-17T05:09:37.158Z,2.40
2023-03-17T05:14:40.637Z,2.43
2023-03-17T05:19:44.064Z,2.13
2023-03-17T05:24:48.850Z,2.20
2023-03-17T05:29:52.113Z,2.13
2023-03-17T05:34:55.348Z,2.40
2023-03-17T05:40:00.209Z,2.13
2023-03-17T05:45:05.339Z,4.57
2023-03-17T05:50:09.491Z,2.00
2023-03-17T05:55:14.187Z,2.20
2023-03-17T06:00:18.949Z,2.00
2023-03-17T06:05:22.495Z,2.00
2023-03-17T06:10:27.224Z,1.70
2023-03-17T06:15:30.797Z,3.10
2023-03-17T06:20:34.785Z,2.70
2023-03-17T06:25:39.486Z,2.50
2023-03-17T06:30:42.725Z,2.37
2023-03-17T06:35:46.119Z,2.23
2023-03-17T06:40:50.868Z,1.70
2023-03-17T06:45:54.117Z,2.57
2023-03-17T06:50:57.791Z,1.20
2023-03-17T06:56:02.516Z,1.10
2023-03-17T07:01:07.737Z,2.33
2023-03-17T07:06:11.018Z,1.70
2023-03-17T07:11:15.922Z,1.23
2023-03-17T07:16:21.145Z,3.00
2023-03-17T07:21:24.506Z,2.80
2023-03-17T07:26:29.187Z,2.60
2023-03-17T07:31:32.601Z,2.23
2023-03-17T07:36:36.149Z,2.10
2023-03-17T07:41:41.466Z,2.37
2023-03-17T07:46:44.741Z,1.73
2023-03-17T07:51:48.186Z,1.70
2023-03-17T07:56:52.969Z,2.03
2023-03-17T08:01:58.186Z,2.17
2023-03-17T08:07:01.530Z,1.83
2023-03-17T08:12:08.651Z,1.10
2023-03-17T08:17:12.505Z,1.57
2023-03-17T08:22:15.842Z,1.70
2023-03-17T08:27:21.499Z,1.20
2023-03-17T08:32:24.936Z,1.20
2023-03-17T08:37:28.357Z,1.43
2023-03-17T08:42:33.096Z,1.67
2023-03-17T08:47:36.750Z,1.60
2023-03-17T08:52:40.966Z,1.20
2023-03-17T08:57:46.390Z,1.30
2023-03-17T09:02:50.562Z,1.10
2023-03-17T09:07:54.057Z,1.00
2023-03-17T09:13:03.080Z,1.17
2023-03-17T09:18:07.120Z,0.80
2023-03-17T09:23:11.883Z,1.10
2023-03-17T09:28:17.504Z,1.03
2023-03-17T09:33:21.109Z,1.30
2023-03-17T09:38:24.947Z,1.20
2023-03-17T09:43:37.179Z,1.10
2023-03-17T09:48:53.675Z,1.20
2023-03-17T09:54:01.728Z,1.13
2023-03-17T09:59:09.140Z,0.93
2023-03-17T10:04:29.370Z,1.33
2023-03-17T10:09:42.741Z,1.40
2023-03-17T10:14:55.939Z,0.90
2023-03-17T10:20:04.818Z,1.10
2023-03-17T10:25:15.020Z,1.00
2023-03-17T10:30:22.839Z,1.03
2023-03-17T10:35:27.150Z,1.13
2023-03-17T10:40:32.853Z,1.13
2023-03-17T10:45:43.278Z,1.30
2023-03-17T10:50:49.638Z,1.27
2023-03-17T10:55:55.665Z,1.00
2023-03-17T11:01:05.931Z,1.07
2023-03-17T11:06:11.688Z,1.60
2023-03-17T11:11:25.316Z,1.20
2023-03-17T11:16:30.489Z,1.40
2023-03-17T11:21:46.880Z,1.13
2023-03-17T11:26:58.748Z,1.40
2023-03-17T11:32:20.522Z,1.40
2023-03-17T11:37:34.179Z,1.50
2023-03-17T11:42:49.614Z,1.67
2023-03-17T11:48:11.730Z,1.07
2023-03-17T11:53:40.738Z,1.53
2023-03-17T11:58:46.110Z,1.20
2023-03-17T12:03:55.524Z,1.23
2023-03-17T12:09:01.630Z,1.37
2023-03-17T12:14:08.035Z,1.30
2023-03-17T12:19:19.401Z,1.33
2023-03-17T12:24:31.659Z,1.50
2023-03-17T12:29:43.761Z,1.17
2023-03-17T12:34:52.653Z,1.20
2023-03-17T12:40:01.885Z,1.30
2023-03-17T12:45:41.522Z,1.10
2023-03-17T12:51:06.490Z,1.07
2023-03-17T12:56:16.757Z,1.67
2023-03-17T13:01:32.136Z,1.10
2023-03-17T13:06:43.810Z,1.30
2023-03-17T13:11:50.359Z,1.07
2023-03-17T13:17:03.932Z,1.20
2023-03-17T13:22:37.538Z,1.10
2023-03-17T13:27:46.592Z,1.90
2023-03-17T13:32:57.150Z,1.07
2023-03-17T13:38:34.540Z,0.93
2023-03-17T13:43:56.081Z,1.10
2023-03-17T13:49:04.308Z,1.23
2023-03-17T13:54:23.275Z,1.40
2023-03-17T13:59:37.666Z,1.30
2023-03-17T14:04:48.605Z,1.33
2023-03-17T14:09:59.258Z,1.20
2023-03-17T14:15:08.385Z,1.23
2023-03-17T14:20:23.468Z,1.20
2023-03-17T14:25:34.262Z,1.20
2023-03-17T14:30:38.244Z,1.10
2023-03-17T14:35:43.652Z,1.17
2023-03-17T14:40:48.650Z,1.07
2023-03-17T14:45:53.110Z,1.30
2023-03-17T14:51:04.994Z,1.10
2023-03-17T14:56:10.622Z,0.90
2023-03-17T15:01:17.954Z,1.20
2023-03-17T15:06:26.142Z,0.93
2023-03-17T15:11:41.893Z,1.23
2023-03-17T15:16:49.732Z,0.90
2023-03-17T15:21:53.420Z,0.80
2023-03-17T15:27:06.366Z,0.83
2023-03-17T15:32:15.253Z,0.97
2023-03-17T15:37:20.611Z,1.20
2023-03-17T15:42:27.532Z,0.90
2023-03-17T15:47:34.194Z,0.90
2023-03-17T15:52:37.544Z,1.00
2023-03-17T15:57:54.872Z,0.80
2023-03-17T16:03:02.212Z,1.07
2023-03-17T16:08:05.673Z,0.87
2023-03-17T16:13:10.345Z,0.93
2023-03-17T16:18:16.836Z,0.70
2023-03-17T16:23:22.852Z,1.10
2023-03-17T16:28:29.608Z,1.00
2023-03-17T16:33:39.324Z,1.00
2023-03-17T16:38:42.697Z,1.00
2023-03-17T16:43:51.416Z,0.70
2023-03-17T16:48:56.403Z,0.70
2023-03-17T16:53:59.716Z,0.80
2023-03-17T16:59:05.436Z,0.80
2023-03-17T17:04:11.248Z,0.90
2023-03-17T17:09:15.075Z,0.70
2023-03-17T17:14:20.220Z,0.70
2023-03-17T17:19:25.100Z,0.90
2023-03-17T17:24:29.617Z,1.00
2023-03-17T17:29:36.321Z,1.10
2023-03-17T17:34:41.200Z,1.20
2023-03-17T17:39:45.201Z,1.27
2023-03-17T17:44:50.391Z,1.27
2023-03-17T17:49:55.026Z,1.17
2023-03-17T17:55:00.063Z,0.93
2023-03-17T18:00:07.625Z,0.87
2023-03-17T18:05:14.707Z,0.90
2023-03-17T18:10:21.181Z,1.20
2023-03-17T18:15:29.477Z,0.80
2023-03-17T18:20:34.862Z,0.60
2023-03-17T18:25:40.202Z,0.70
2023-03-17T18:30:46.969Z,0.70
2023-03-17T18:35:55.691Z,0.90
2023-03-17T18:41:00.565Z,1.07
2023-03-17T18:46:07.376Z,0.90
2023-03-17T18:51:12.315Z,1.33
2023-03-17T18:56:18.036Z,0.90
2023-03-17T19:01:29.141Z,0.97
2023-03-17T19:06:40.201Z,0.87
2023-03-17T19:11:45.088Z,0.67
2023-03-17T19:16:50.970Z,0.80
2023-03-17T19:21:55.826Z,0.90
2023-03-17T19:27:01.757Z,1.00
2023-03-17T19:32:10.978Z,0.90
2023-03-17T19:37:17.902Z,0.73
2023-03-17T19:42:22.821Z,1.10
2023-03-17T19:47:28.754Z,2.33
2023-03-17T19:52:32.915Z,2.50
2023-03-17T19:57:37.802Z,2.80
2023-03-17T20:02:45.474Z,2.73
2023-03-17T20:07:52.023Z,1.47
2023-03-17T20:12:57.720Z,2.00
2023-03-17T20:18:08.076Z,1.67
2023-03-17T20:23:13.084Z,1.10
2023-03-17T20:28:18.092Z,1.30
2023-03-17T20:33:24.313Z,0.90
2023-03-17T20:38:28.567Z,1.07
2023-03-17T20:43:36.887Z,1.10
2023-03-17T20:48:43.616Z,1.20
2023-03-17T20:53:49.234Z,1.60
2023-03-17T20:58:54.936Z,1.00
2023-03-17T21:04:01.547Z,1.67
2023-03-17T21:09:07.536Z,1.90
2023-03-17T21:14:14.739Z,1.27
2023-03-17T21:19:25.864Z,1.20
2023-03-17T21:24:37.751Z,1.50
2023-03-17T21:29:41.779Z,1.87
2023-03-17T21:34:48.329Z,1.67
2023-03-17T21:39:51.737Z,1.67
2023-03-17T21:44:55.326Z,1.50
2023-03-17T21:50:00.918Z,1.80
2023-03-17T21:55:04.397Z,2.17
2023-03-17T22:00:09.692Z,2.20
2023-03-17T22:05:14.712Z,2.00
2023-03-17T22:10:18.160Z,2.50
2023-03-17T22:15:21.756Z,2.30
2023-03-17T22:20:26.431Z,2.70
2023-03-17T22:25:29.694Z,2.97
2023-03-17T22:30:33.321Z,2.90
2023-03-17T22:35:39.110Z,2.17
2023-03-17T22:40:42.345Z,2.40
2023-03-17T22:45:46.157Z,1.57
2023-03-17T22:50:50.870Z,1.47
2023-03-17T22:55:54.102Z,1.73
2023-03-17T23:00:57.497Z,2.20
2023-03-17T23:06:04.912Z,1.90
2023-03-17T23:11:10.651Z,2.07
2023-03-17T23:16:14.825Z,1.63
2023-03-17T23:21:24.308Z,1.90
2023-03-17T23:26:27.698Z,2.00
2023-03-17T23:31:46.562Z,1.93
2023-03-17T23:36:51.765Z,1.40
2023-03-17T23:41:55.504Z,1.70
2023-03-17T23:46:59.063Z,1.80
2023-03-17T23:52:04.741Z,1.70
2023-03-17T23:57:08.534Z,1.63
